createdAt,value
2017-04-16T00:00:11.636Z,1007.38
2017-04-16T00:00:52.516Z,1007.43
2017-04-16T00:01:33.394Z,1007.42
2017-04-16T00:02:14.285Z,1007.47
2017-04-16T00:02:55.190Z,1007.51
2017-04-16T00:03:36.052Z,1007.41
2017-04-16T00:04:16.973Z,1007.56
2017-04-16T00:04:57.854Z,1007.5
2017-04-16T00:05:38.738Z,1007.57
2017-04-16T00:06:19.618Z,1007.54
2017-04-16T00:07:00.494Z,1007.48
2017-04-16T00:07:41.365Z,1007.43
2017-04-16T00:08:22.258Z,1007.48
2017-04-16T00:09:03.133Z,1007.43
2017-04-16T00:09:44.012Z,1007.45
2017-04-16T00:10:24.891Z,1007.5
2017-04-16T00:11:05.758Z,1007.47
2017-04-16T00:13:40.040Z,1007.42
2017-04-16T00:14:20.914Z,1007.46
2017-04-16T00:15:01.789Z,1007.44
2017-04-16T00:15:42.668Z,1007.39
2017-04-16T00:16:23.575Z,1007.45
2017-04-16T00:17:04.445Z,1007.46
2017-04-16T00:17:45.323Z,1007.43
2017-04-16T00:18:26.202Z,1007.48
2017-04-16T00:19:07.091Z,1007.46
2017-04-16T00:19:47.964Z,1007.47
2017-04-16T00:20:28.843Z,1007.47
2017-04-16T00:21:09.709Z,1007.49
2017-04-16T00:21:50.606Z,1007.46
2017-04-16T00:22:31.478Z,1007.49
2017-04-16T00:23:12.351Z,1007.51
2017-04-16T00:23:53.227Z,1007.6
2017-04-16T00:24:34.106Z,1007.54
2017-04-16T00:25:15.010Z,1007.45
2017-04-16T00:25:55.872Z,1007.51
2017-04-16T00:26:36.748Z,1007.53
2017-04-16T00:27:18.243Z,1007.52
2017-04-16T00:27:59.115Z,1007.51
2017-04-16T00:28:40.000Z,1007.44
2017-04-16T00:29:20.875Z,1007.49
2017-04-16T00:30:01.756Z,1007.51
2017-04-16T00:30:42.621Z,1007.49
2017-04-16T00:31:23.502Z,1007.51
2017-04-16T00:32:04.391Z,1007.52
2017-04-16T00:32:45.267Z,1007.5
2017-04-16T00:33:26.139Z,1007.48
2017-04-16T00:34:07.008Z,1007.52
2017-04-16T00:34:47.886Z,1007.48
2017-04-16T00:35:28.777Z,1007.51
2017-04-16T00:36:09.672Z,1007.45
2017-04-16T00:36:50.538Z,1007.55
2017-04-16T00:37:31.425Z,1007.48
2017-04-16T00:39:10.672Z,1007.49
2017-04-16T00:39:51.541Z,1007.51
2017-04-16T00:40:32.431Z,1007.51
2017-04-16T00:41:13.305Z,1007.46
2017-04-16T00:41:54.179Z,1007.49
2017-04-16T00:42:35.054Z,1007.54
2017-04-16T00:43:15.928Z,1007.45
2017-04-16T00:43:56.809Z,1007.52
2017-04-16T00:44:37.688Z,1007.52
2017-04-16T00:45:18.562Z,1007.53
2017-04-16T00:45:59.433Z,1007.56
2017-04-16T00:46:40.324Z,1007.45
2017-04-16T00:47:21.215Z,1007.56
2017-04-16T00:48:02.100Z,1007.49
2017-04-16T00:48:42.974Z,1007.46
2017-04-16T00:49:23.852Z,1007.58
2017-04-16T00:50:04.732Z,1007.5
2017-04-16T00:50:45.605Z,1007.58
2017-04-16T00:51:26.478Z,1007.5
2017-04-16T00:52:07.343Z,1007.5
2017-04-16T00:52:48.225Z,1007.5
2017-04-16T00:53:29.104Z,1007.54
2017-04-16T00:54:09.985Z,1007.54
2017-04-16T00:54:50.857Z,1007.55
2017-04-16T00:55:31.726Z,1007.48
2017-04-16T00:56:12.609Z,1007.53
2017-04-16T00:56:53.495Z,1007.58
2017-04-16T00:57:34.369Z,1007.58
2017-04-16T00:58:15.244Z,1007.53
2017-04-16T00:58:56.121Z,1007.57
2017-04-16T00:59:36.999Z,1007.57
2017-04-16T01:00:17.883Z,1007.51
2017-04-16T01:00:58.764Z,1007.55
2017-04-16T01:01:39.639Z,1007.57
2017-04-16T01:02:20.503Z,1007.53
2017-04-16T01:03:01.370Z,1007.52
2017-04-16T01:03:42.240Z,1007.64
2017-04-16T01:04:23.126Z,1007.56
2017-04-16T01:05:04.034Z,1007.57
2017-04-16T01:05:44.900Z,1007.54
2017-04-16T01:06:25.774Z,1007.62
2017-04-16T01:07:06.670Z,1007.54
2017-04-16T01:07:47.547Z,1007.56
2017-04-16T01:08:28.423Z,1007.62
2017-04-16T01:09:09.291Z,1007.61
2017-04-16T01:09:50.175Z,1007.59
2017-04-16T01:10:31.062Z,1007.64
2017-04-16T01:11:11.939Z,1007.61
2017-04-16T01:11:52.809Z,1007.64
2017-04-16T01:12:33.688Z,1007.57
2017-04-16T01:13:14.565Z,1007.63
2017-04-16T01:13:55.471Z,1007.59
2017-04-16T01:14:36.348Z,1007.62
2017-04-16T01:15:17.229Z,1007.66
2017-04-16T01:15:58.125Z,1007.62
2017-04-16T01:16:38.994Z,1007.59
2017-04-16T01:17:19.880Z,1007.58
2017-04-16T01:18:00.752Z,1007.62
2017-04-16T01:18:41.608Z,1007.6
2017-04-16T01:19:22.482Z,1007.67
2017-04-16T01:20:03.365Z,1007.65
2017-04-16T01:20:44.253Z,1007.58
2017-04-16T01:21:25.122Z,1007.62
2017-04-16T01:22:06.007Z,1007.7
2017-04-16T01:22:46.875Z,1007.56
2017-04-16T01:23:27.758Z,1007.7
2017-04-16T01:24:08.638Z,1007.64
2017-04-16T01:24:49.526Z,1007.65
2017-04-16T01:25:30.389Z,1007.71
2017-04-16T01:26:11.262Z,1007.66
2017-04-16T01:26:52.156Z,1007.62
2017-04-16T01:27:33.035Z,1007.64
2017-04-16T01:28:13.910Z,1007.69
2017-04-16T01:28:54.780Z,1007.71
2017-04-16T01:29:35.655Z,1007.69
2017-04-16T01:30:16.538Z,1007.69
2017-04-16T01:30:57.413Z,1007.66
2017-04-16T01:31:38.303Z,1007.61
2017-04-16T01:32:19.164Z,1007.7
2017-04-16T01:33:00.033Z,1007.7
2017-04-16T01:33:40.915Z,1007.64
2017-04-16T01:34:21.799Z,1007.66
2017-04-16T01:35:02.702Z,1007.71
2017-04-16T01:35:43.624Z,1007.69
2017-04-16T01:36:24.493Z,1007.75
2017-04-16T01:37:05.373Z,1007.62
2017-04-16T01:37:46.245Z,1007.62
2017-04-16T01:38:27.132Z,1007.68
2017-04-16T01:39:08.012Z,1007.76
2017-04-16T01:39:48.917Z,1007.7
2017-04-16T01:40:29.811Z,1007.67
2017-04-16T01:41:10.694Z,1007.66
2017-04-16T01:41:51.567Z,1007.68
2017-04-16T01:42:32.446Z,1007.69
2017-04-16T01:43:13.310Z,1007.66
2017-04-16T01:43:54.170Z,1007.66
2017-04-16T01:44:35.028Z,1007.66
2017-04-16T01:45:15.930Z,1007.7
2017-04-16T01:45:56.851Z,1007.66
2017-04-16T01:46:37.702Z,1007.64
2017-04-16T01:47:18.566Z,1007.72
2017-04-16T01:47:59.436Z,1007.67
2017-04-16T01:48:40.319Z,1007.61
2017-04-16T01:49:21.192Z,1007.67
2017-04-16T01:50:02.056Z,1007.68
2017-04-16T01:50:42.927Z,1007.73
2017-04-16T01:51:23.832Z,1007.68
2017-04-16T01:52:04.718Z,1007.82
2017-04-16T01:52:45.611Z,1007.64
2017-04-16T01:53:26.478Z,1007.69
2017-04-16T01:54:07.343Z,1007.7
2017-04-16T01:54:48.217Z,1007.7
2017-04-16T01:55:29.180Z,1007.7
2017-04-16T01:56:10.055Z,1007.72
2017-04-16T01:56:50.928Z,1007.73
2017-04-16T01:57:31.811Z,1007.71
2017-04-16T01:58:12.673Z,1007.74
2017-04-16T01:58:53.556Z,1007.7
2017-04-16T01:59:34.422Z,1007.77
2017-04-16T02:00:15.309Z,1007.73
2017-04-16T02:00:56.182Z,1007.76
2017-04-16T02:01:37.081Z,1007.7
2017-04-16T02:02:17.931Z,1007.73
2017-04-16T02:02:58.790Z,1007.73
2017-04-16T02:03:39.652Z,1007.7
2017-04-16T02:04:20.526Z,1007.76
2017-04-16T02:05:01.405Z,1007.74
2017-04-16T02:05:42.284Z,1007.77
2017-04-16T02:06:23.159Z,1007.79
2017-04-16T02:07:04.032Z,1007.78
2017-04-16T02:07:44.894Z,1007.77
2017-04-16T02:08:25.777Z,1007.77
2017-04-16T02:09:06.683Z,1007.76
2017-04-16T02:09:47.552Z,1007.79
2017-04-16T02:10:28.437Z,1007.75
2017-04-16T02:11:09.284Z,1007.83
2017-04-16T02:11:50.149Z,1007.74
2017-04-16T02:12:31.015Z,1007.74
2017-04-16T02:13:11.899Z,1007.8
2017-04-16T02:13:52.788Z,1007.75
2017-04-16T02:14:33.698Z,1007.71
2017-04-16T02:15:14.589Z,1007.75
2017-04-16T02:15:55.470Z,1007.76
2017-04-16T02:16:36.346Z,1007.75
2017-04-16T02:17:17.213Z,1007.82
2017-04-16T02:17:58.088Z,1007.84
2017-04-16T02:18:38.961Z,1007.79
2017-04-16T02:19:19.832Z,1007.79
2017-04-16T02:20:00.715Z,1007.83
2017-04-16T02:20:41.595Z,1007.8
2017-04-16T02:21:22.456Z,1007.79
2017-04-16T02:22:03.332Z,1007.75
2017-04-16T02:22:44.198Z,1007.8
2017-04-16T02:23:25.077Z,1007.81
2017-04-16T02:24:05.951Z,1007.67
2017-04-16T02:24:46.827Z,1007.69
2017-04-16T02:25:27.699Z,1007.72
2017-04-16T02:26:08.560Z,1007.72
2017-04-16T02:26:49.421Z,1007.74
2017-04-16T02:27:30.301Z,1007.73
2017-04-16T02:28:11.175Z,1007.8
2017-04-16T02:28:52.067Z,1007.77
2017-04-16T02:29:32.946Z,1007.73
2017-04-16T02:30:13.816Z,1007.77
2017-04-16T02:30:54.686Z,1007.72
2017-04-16T02:31:35.559Z,1007.77
2017-04-16T02:32:16.442Z,1007.75
2017-04-16T02:32:57.326Z,1007.77
2017-04-16T02:33:38.200Z,1007.82
2017-04-16T02:34:19.066Z,1007.78
2017-04-16T02:34:59.918Z,1007.73
2017-04-16T02:35:40.777Z,1007.76
2017-04-16T02:36:21.639Z,1007.73
2017-04-16T02:37:02.521Z,1007.7
2017-04-16T02:37:43.410Z,1007.7
2017-04-16T02:38:24.285Z,1007.71
2017-04-16T02:39:05.154Z,1007.75
2017-04-16T02:39:46.025Z,1007.73
2017-04-16T02:40:26.908Z,1007.68
2017-04-16T02:41:07.765Z,1007.73
2017-04-16T02:41:48.674Z,1007.75
2017-04-16T02:42:29.544Z,1007.65
2017-04-16T02:43:10.418Z,1007.66
2017-04-16T02:43:51.284Z,1007.71
2017-04-16T02:44:32.158Z,1007.67
2017-04-16T02:45:13.041Z,1007.74
2017-04-16T02:45:53.932Z,1007.69
2017-04-16T02:46:34.805Z,1007.65
2017-04-16T02:47:15.675Z,1007.73
2017-04-16T02:47:56.548Z,1007.66
2017-04-16T02:48:37.441Z,1007.63
2017-04-16T02:49:18.342Z,1007.75
2017-04-16T02:49:59.204Z,1007.63
2017-04-16T02:50:40.078Z,1007.67
2017-04-16T02:51:20.993Z,1007.64
2017-04-16T02:52:01.886Z,1007.68
2017-04-16T02:52:42.750Z,1007.64
2017-04-16T02:53:23.622Z,1007.65
2017-04-16T02:54:04.495Z,1007.67
2017-04-16T02:54:45.373Z,1007.73
2017-04-16T02:55:26.264Z,1007.59
2017-04-16T02:56:07.137Z,1007.6
2017-04-16T02:56:48.019Z,1007.63
2017-04-16T02:57:28.898Z,1007.71
2017-04-16T02:58:09.783Z,1007.65
2017-04-16T02:58:50.661Z,1007.65
2017-04-16T02:59:31.539Z,1007.67
2017-04-16T03:00:12.423Z,1007.7
2017-04-16T03:00:53.301Z,1007.69
2017-04-16T03:01:34.184Z,1007.67
2017-04-16T03:02:15.074Z,1007.7
2017-04-16T03:02:55.960Z,1007.71
2017-04-16T03:03:36.844Z,1007.7
2017-04-16T03:04:17.736Z,1007.7
2017-04-16T03:04:58.597Z,1007.67
2017-04-16T03:05:39.470Z,1007.73
2017-04-16T03:06:20.402Z,1007.72
2017-04-16T03:07:01.273Z,1007.72
2017-04-16T03:07:42.143Z,1007.73
2017-04-16T03:08:23.024Z,1007.65
2017-04-16T03:09:03.898Z,1007.73
2017-04-16T03:09:44.782Z,1007.68
2017-04-16T03:10:25.649Z,1007.69
2017-04-16T03:11:06.522Z,1007.7
2017-04-16T03:11:47.407Z,1007.63
2017-04-16T03:12:28.351Z,1007.65
2017-04-16T03:13:09.224Z,1007.62
2017-04-16T03:13:50.105Z,1007.64
2017-04-16T03:14:30.991Z,1007.67
2017-04-16T03:15:11.867Z,1007.63
2017-04-16T03:15:52.733Z,1007.66
2017-04-16T03:16:33.605Z,1007.6
2017-04-16T03:17:14.474Z,1007.5
2017-04-16T03:17:55.367Z,1007.6
2017-04-16T03:18:36.246Z,1007.56
2017-04-16T03:19:17.126Z,1007.57
2017-04-16T03:19:58.010Z,1007.55
2017-04-16T03:20:38.879Z,1007.52
2017-04-16T03:21:19.748Z,1007.52
2017-04-16T03:22:00.629Z,1007.56
2017-04-16T03:22:41.507Z,1007.62
2017-04-16T03:23:22.402Z,1007.54
2017-04-16T03:24:03.283Z,1007.52
2017-04-16T03:24:44.172Z,1007.59
2017-04-16T03:25:25.066Z,1007.56
2017-04-16T03:26:05.941Z,1007.61
2017-04-16T03:26:46.827Z,1007.62
2017-04-16T03:27:27.700Z,1007.51
2017-04-16T03:28:08.579Z,1007.55
2017-04-16T03:28:49.467Z,1007.56
2017-04-16T03:29:30.350Z,1007.58
2017-04-16T03:30:11.235Z,1007.56
2017-04-16T03:30:52.114Z,1007.56
2017-04-16T03:31:32.992Z,1007.58
2017-04-16T03:32:13.864Z,1007.58
2017-04-16T03:32:54.740Z,1007.6
2017-04-16T03:33:35.622Z,1007.57
2017-04-16T03:34:16.498Z,1007.69
2017-04-16T03:34:57.369Z,1007.5
2017-04-16T03:35:38.257Z,1007.61
2017-04-16T03:36:19.152Z,1007.65
2017-04-16T03:37:00.025Z,1007.59
2017-04-16T03:37:40.898Z,1007.68
2017-04-16T03:38:21.778Z,1007.61
2017-04-16T03:39:02.657Z,1007.58
2017-04-16T03:39:43.544Z,1007.59
2017-04-16T03:40:24.428Z,1007.52
2017-04-16T03:41:05.296Z,1007.56
2017-04-16T03:41:46.169Z,1007.62
2017-04-16T03:42:27.043Z,1007.57
2017-04-16T03:43:07.925Z,1007.56
2017-04-16T03:43:48.817Z,1007.58
2017-04-16T03:44:29.687Z,1007.55
2017-04-16T03:45:10.570Z,1007.58
2017-04-16T03:45:51.458Z,1007.53
2017-04-16T03:46:32.335Z,1007.57
2017-04-16T03:47:13.215Z,1007.54
2017-04-16T03:47:54.083Z,1007.59
2017-04-16T03:48:34.951Z,1007.49
2017-04-16T03:49:15.816Z,1007.52
2017-04-16T03:49:56.678Z,1007.54
2017-04-16T03:50:37.565Z,1007.52
2017-04-16T03:51:18.443Z,1007.57
2017-04-16T03:51:59.370Z,1007.51
2017-04-16T03:52:40.239Z,1007.55
2017-04-16T03:53:21.105Z,1007.54
2017-04-16T03:54:01.989Z,1007.5
2017-04-16T03:54:42.861Z,1007.45
2017-04-16T03:55:23.789Z,1007.54
2017-04-16T03:56:04.626Z,1007.58
2017-04-16T03:56:45.506Z,1007.57
2017-04-16T03:57:26.388Z,1007.56
2017-04-16T03:58:07.263Z,1007.6
2017-04-16T03:58:48.139Z,1007.55
2017-04-16T03:59:29.029Z,1007.58
2017-04-16T04:00:09.901Z,1007.63
2017-04-16T04:00:50.778Z,1007.63
2017-04-16T04:01:31.652Z,1007.58
2017-04-16T04:02:12.532Z,1007.54
2017-04-16T04:02:53.413Z,1007.63
2017-04-16T04:03:34.291Z,1007.62
2017-04-16T04:04:15.168Z,1007.63
2017-04-16T04:04:56.040Z,1007.69
2017-04-16T04:05:36.919Z,1007.65
2017-04-16T04:06:17.811Z,1007.57
2017-04-16T04:06:58.688Z,1007.63
2017-04-16T04:07:39.563Z,1007.66
2017-04-16T04:08:20.448Z,1007.61
2017-04-16T04:09:01.323Z,1007.64
2017-04-16T04:09:42.204Z,1007.63
2017-04-16T04:10:23.077Z,1007.63
2017-04-16T04:11:03.955Z,1007.66
2017-04-16T04:11:44.847Z,1007.64
2017-04-16T04:12:25.713Z,1007.69
2017-04-16T04:13:06.595Z,1007.63
2017-04-16T04:13:47.492Z,1007.66
2017-04-16T04:14:28.379Z,1007.68
2017-04-16T04:15:09.259Z,1007.72
2017-04-16T04:15:50.141Z,1007.66
2017-04-16T04:16:31.022Z,1007.66
2017-04-16T04:17:11.894Z,1007.63
2017-04-16T04:17:52.780Z,1007.67
2017-04-16T04:18:33.662Z,1007.69
2017-04-16T04:19:14.535Z,1007.68
2017-04-16T04:19:55.423Z,1007.68
2017-04-16T04:20:36.302Z,1007.71
2017-04-16T04:21:17.180Z,1007.73
2017-04-16T04:21:58.058Z,1007.7
2017-04-16T04:22:38.983Z,1007.75
2017-04-16T04:23:19.849Z,1007.77
2017-04-16T04:24:00.728Z,1007.7
2017-04-16T04:24:41.602Z,1007.77
2017-04-16T04:25:22.493Z,1007.77
2017-04-16T04:26:03.368Z,1007.75
2017-04-16T04:26:44.236Z,1007.74
2017-04-16T04:27:25.111Z,1007.73
2017-04-16T04:28:05.998Z,1007.75
2017-04-16T04:28:46.872Z,1007.75
2017-04-16T04:29:27.762Z,1007.75
2017-04-16T04:30:08.661Z,1007.73
2017-04-16T04:30:49.536Z,1007.74
2017-04-16T04:31:30.409Z,1007.82
2017-04-16T04:32:11.282Z,1007.84
2017-04-16T04:32:52.154Z,1007.76
2017-04-16T04:33:33.031Z,1007.83
2017-04-16T04:34:13.904Z,1007.84
2017-04-16T04:34:54.767Z,1007.73
2017-04-16T04:35:35.646Z,1007.82
2017-04-16T04:36:16.531Z,1007.73
2017-04-16T04:36:57.400Z,1007.8
2017-04-16T04:37:38.281Z,1007.82
2017-04-16T04:38:19.181Z,1007.73
2017-04-16T04:39:00.066Z,1007.82
2017-04-16T04:39:40.941Z,1007.78
2017-04-16T04:40:21.818Z,1007.78
2017-04-16T04:41:02.690Z,1007.77
2017-04-16T04:41:43.586Z,1007.78
2017-04-16T04:42:24.467Z,1007.79
2017-04-16T04:43:05.336Z,1007.82
2017-04-16T04:43:46.201Z,1007.79
2017-04-16T04:44:27.081Z,1007.78
2017-04-16T04:45:07.993Z,1007.81
2017-04-16T04:45:48.865Z,1007.72
2017-04-16T04:46:29.741Z,1007.85
2017-04-16T04:47:10.608Z,1007.79
2017-04-16T04:47:51.473Z,1007.81
2017-04-16T04:48:32.349Z,1007.83
2017-04-16T04:49:13.224Z,1007.78
2017-04-16T04:49:54.131Z,1007.83
2017-04-16T04:50:35.007Z,1007.79
2017-04-16T04:51:15.888Z,1007.86
2017-04-16T04:51:56.776Z,1007.84
2017-04-16T04:52:37.657Z,1007.82
2017-04-16T04:53:18.541Z,1007.82
2017-04-16T04:53:59.429Z,1007.79
2017-04-16T04:54:40.305Z,1007.78
2017-04-16T04:55:21.185Z,1007.87
2017-04-16T04:56:02.067Z,1007.84
2017-04-16T04:56:42.931Z,1007.84
2017-04-16T04:57:23.823Z,1007.85
2017-04-16T04:58:04.701Z,1007.85
2017-04-16T04:58:45.589Z,1007.89
2017-04-16T04:59:26.469Z,1007.89
2017-04-16T05:00:07.354Z,1007.85
2017-04-16T05:00:48.232Z,1007.87
2017-04-16T05:01:29.115Z,1007.88
2017-04-16T05:02:09.994Z,1007.87
2017-04-16T05:02:50.856Z,1007.87
2017-04-16T05:03:31.736Z,1007.92
2017-04-16T05:04:12.632Z,1007.92
2017-04-16T05:04:53.508Z,1007.89
2017-04-16T05:05:34.394Z,1007.91
2017-04-16T05:06:15.273Z,1007.96
2017-04-16T05:06:56.154Z,1007.94
2017-04-16T05:07:37.106Z,1007.93
2017-04-16T05:08:17.977Z,1007.9
2017-04-16T05:08:58.860Z,1007.99
2017-04-16T05:09:39.740Z,1007.86
2017-04-16T05:10:20.663Z,1007.9
2017-04-16T05:11:01.535Z,1007.87
2017-04-16T05:11:42.412Z,1007.94
2017-04-16T05:12:23.282Z,1007.92
2017-04-16T05:13:04.162Z,1007.85
2017-04-16T05:13:45.048Z,1007.92
2017-04-16T05:14:25.924Z,1007.9
2017-04-16T05:15:06.818Z,1007.9
2017-04-16T05:15:47.684Z,1007.87
2017-04-16T05:16:28.571Z,1007.91
2017-04-16T05:17:09.456Z,1007.97
2017-04-16T05:17:50.356Z,1007.99
2017-04-16T05:18:31.253Z,1007.99
2017-04-16T05:19:12.127Z,1007.99
2017-04-16T05:19:53.006Z,1008.04
2017-04-16T05:20:33.874Z,1007.99
2017-04-16T05:21:14.754Z,1007.97
2017-04-16T05:21:55.638Z,1008.04
2017-04-16T05:22:36.531Z,1008.05
2017-04-16T05:23:17.412Z,1008.05
2017-04-16T05:23:58.297Z,1008.05
2017-04-16T05:24:39.170Z,1008.01
2017-04-16T05:25:20.057Z,1008.03
2017-04-16T05:26:00.932Z,1008.09
2017-04-16T05:26:41.806Z,1008.09
2017-04-16T05:27:22.686Z,1008.14
2017-04-16T05:28:03.567Z,1008.08
2017-04-16T05:28:44.449Z,1008.12
2017-04-16T05:29:25.326Z,1008.11
2017-04-16T05:30:06.198Z,1008.11
2017-04-16T05:30:47.070Z,1008.15
2017-04-16T05:31:27.955Z,1008.08
2017-04-16T05:32:08.831Z,1008.12
2017-04-16T05:32:49.714Z,1008.21
2017-04-16T05:33:30.593Z,1008.13
2017-04-16T05:34:11.470Z,1008.17
2017-04-16T05:34:52.358Z,1008.16
2017-04-16T05:35:33.238Z,1008.16
2017-04-16T05:36:14.112Z,1008.13
2017-04-16T05:36:54.995Z,1008.1
2017-04-16T05:37:35.883Z,1008.17
2017-04-16T05:38:16.769Z,1008.13
2017-04-16T05:38:57.644Z,1008.14
2017-04-16T05:39:38.522Z,1008.12
2017-04-16T05:40:19.398Z,1008.22
2017-04-16T05:41:00.314Z,1008.12
2017-04-16T05:41:41.185Z,1008.15
2017-04-16T05:42:22.074Z,1008.23
2017-04-16T05:43:02.953Z,1008.15
2017-04-16T05:43:43.832Z,1008.17
2017-04-16T05:44:24.701Z,1008.16
2017-04-16T05:45:05.572Z,1008.23
2017-04-16T05:45:46.450Z,1008.27
2017-04-16T05:46:27.334Z,1008.24
2017-04-16T05:47:08.214Z,1008.2
2017-04-16T05:47:49.093Z,1008.21
2017-04-16T05:48:29.967Z,1008.14
2017-04-16T05:49:10.843Z,1008.23
2017-04-16T05:49:51.727Z,1008.2
2017-04-16T05:50:32.603Z,1008.19
2017-04-16T05:51:13.479Z,1008.14
2017-04-16T05:51:54.350Z,1008.2
2017-04-16T05:52:35.216Z,1008.14
2017-04-16T05:53:16.091Z,1008.26
2017-04-16T05:53:56.975Z,1008.21
2017-04-16T05:54:37.843Z,1008.21
2017-04-16T05:55:18.726Z,1008.2
2017-04-16T05:55:59.607Z,1008.23
2017-04-16T05:56:40.462Z,1008.23
2017-04-16T05:57:21.344Z,1008.26
2017-04-16T05:58:02.339Z,1008.26
2017-04-16T05:58:43.213Z,1008.25
2017-04-16T05:59:24.091Z,1008.31
2017-04-16T06:00:05.002Z,1008.24
2017-04-16T06:00:45.888Z,1008.26
2017-04-16T06:01:26.775Z,1008.24
2017-04-16T06:02:07.641Z,1008.25
2017-04-16T06:02:48.515Z,1008.3
2017-04-16T06:03:29.402Z,1008.32
2017-04-16T06:04:10.305Z,1008.33
2017-04-16T06:04:51.166Z,1008.38
2017-04-16T06:05:32.069Z,1008.43
2017-04-16T06:06:12.950Z,1008.41
2017-04-16T06:06:53.828Z,1008.32
2017-04-16T06:07:34.695Z,1008.35
2017-04-16T06:08:15.575Z,1008.32
2017-04-16T06:08:56.459Z,1008.32
2017-04-16T06:09:37.332Z,1008.32
2017-04-16T06:10:18.220Z,1008.29
2017-04-16T06:10:59.091Z,1008.32
2017-04-16T06:11:39.966Z,1008.35
2017-04-16T06:13:48.963Z,1008.38
2017-04-16T06:14:29.834Z,1008.38
2017-04-16T06:15:10.713Z,1008.4
2017-04-16T06:15:51.602Z,1008.38
2017-04-16T06:16:32.477Z,1008.4
2017-04-16T06:17:13.360Z,1008.43
2017-04-16T06:17:54.238Z,1008.39
2017-04-16T06:18:35.111Z,1008.41
2017-04-16T06:19:15.981Z,1008.47
2017-04-16T06:19:56.852Z,1008.46
2017-04-16T06:20:37.743Z,1008.44
2017-04-16T06:21:18.611Z,1008.44
2017-04-16T06:21:59.486Z,1008.47
2017-04-16T06:22:40.370Z,1008.48
2017-04-16T06:23:21.258Z,1008.47
2017-04-16T06:24:02.136Z,1008.5
2017-04-16T06:24:43.008Z,1008.43
2017-04-16T06:25:23.916Z,1008.44
2017-04-16T06:26:04.808Z,1008.48
2017-04-16T06:26:45.697Z,1008.51
2017-04-16T06:27:26.820Z,1008.5
2017-04-16T06:28:07.746Z,1008.5
2017-04-16T06:28:48.624Z,1008.54
2017-04-16T06:29:29.499Z,1008.55
2017-04-16T06:30:10.380Z,1008.43
2017-04-16T06:30:51.257Z,1008.56
2017-04-16T06:31:32.136Z,1008.52
2017-04-16T06:32:13.019Z,1008.59
2017-04-16T06:32:53.889Z,1008.61
2017-04-16T06:33:34.759Z,1008.62
2017-04-16T06:34:15.630Z,1008.66
2017-04-16T06:34:56.509Z,1008.68
2017-04-16T06:35:37.392Z,1008.74
2017-04-16T06:36:18.268Z,1008.7
2017-04-16T06:36:59.148Z,1008.7
2017-04-16T06:37:40.016Z,1008.69
2017-04-16T06:38:20.892Z,1008.68
2017-04-16T06:39:01.768Z,1008.75
2017-04-16T06:39:42.648Z,1008.64
2017-04-16T06:40:23.523Z,1008.73
2017-04-16T06:41:04.400Z,1008.74
2017-04-16T06:41:45.301Z,1008.75
2017-04-16T06:42:26.196Z,1008.78
2017-04-16T06:43:07.072Z,1008.84
2017-04-16T06:43:47.958Z,1008.83
2017-04-16T06:44:28.869Z,1008.85
2017-04-16T06:45:09.728Z,1008.84
2017-04-16T06:45:50.600Z,1008.84
2017-04-16T06:46:31.463Z,1008.81
2017-04-16T06:47:12.359Z,1008.83
2017-04-16T06:47:53.238Z,1008.87
2017-04-16T06:48:34.117Z,1008.81
2017-04-16T06:49:15.002Z,1008.86
2017-04-16T06:49:55.877Z,1008.92
2017-04-16T06:50:36.749Z,1008.88
2017-04-16T06:51:17.633Z,1008.83
2017-04-16T06:51:58.507Z,1008.84
2017-04-16T06:52:39.385Z,1008.77
2017-04-16T06:53:20.265Z,1008.82
2017-04-16T06:54:01.145Z,1008.83
2017-04-16T06:54:42.028Z,1008.79
2017-04-16T06:55:22.902Z,1008.88
2017-04-16T06:56:03.792Z,1008.88
2017-04-16T06:56:44.671Z,1008.92
2017-04-16T06:57:25.550Z,1008.96
2017-04-16T06:58:06.433Z,1008.96
2017-04-16T06:58:47.309Z,1008.86
2017-04-16T06:59:28.176Z,1008.92
2017-04-16T07:00:09.054Z,1008.96
2017-04-16T07:00:49.922Z,1008.92
2017-04-16T07:01:30.798Z,1008.98
2017-04-16T07:02:11.687Z,1008.92
2017-04-16T07:02:52.560Z,1008.89
2017-04-16T07:03:33.424Z,1008.95
2017-04-16T07:04:14.319Z,1008.92
2017-04-16T07:04:55.191Z,1008.83
2017-04-16T07:05:36.074Z,1008.89
2017-04-16T07:06:16.938Z,1008.9
2017-04-16T07:06:57.813Z,1008.84
2017-04-16T07:07:38.685Z,1008.97
2017-04-16T07:08:19.563Z,1008.92
2017-04-16T07:09:00.445Z,1008.96
2017-04-16T07:09:41.326Z,1009.02
2017-04-16T07:10:22.207Z,1008.96
2017-04-16T07:11:03.080Z,1008.94
2017-04-16T07:11:43.957Z,1008.99
2017-04-16T07:12:24.841Z,1009.02
2017-04-16T07:13:05.730Z,1008.99
2017-04-16T07:13:46.605Z,1008.94
2017-04-16T07:14:27.475Z,1009
2017-04-16T07:15:08.350Z,1009.03
2017-04-16T07:15:49.236Z,1008.99
2017-04-16T07:16:30.111Z,1009.05
2017-04-16T07:17:10.989Z,1009.04
2017-04-16T07:17:51.862Z,1009.11
2017-04-16T07:18:32.737Z,1009.12
2017-04-16T07:19:13.611Z,1009.11
2017-04-16T07:19:54.496Z,1009.04
2017-04-16T07:20:35.375Z,1009.08
2017-04-16T07:21:16.241Z,1009.1
2017-04-16T07:21:57.127Z,1009.1
2017-04-16T07:22:38.007Z,1009.2
2017-04-16T07:23:18.886Z,1009.29
2017-04-16T07:23:59.763Z,1009.16
2017-04-16T07:24:40.638Z,1009.21
2017-04-16T07:25:21.528Z,1009.23
2017-04-16T07:26:02.450Z,1009.22
2017-04-16T07:26:43.340Z,1009.24
2017-04-16T07:27:24.224Z,1009.24
2017-04-16T07:28:05.100Z,1009.28
2017-04-16T07:28:45.984Z,1009.28
2017-04-16T07:29:26.875Z,1009.28
2017-04-16T07:30:07.754Z,1009.26
2017-04-16T07:30:48.636Z,1009.21
2017-04-16T07:31:29.515Z,1009.3
2017-04-16T07:32:10.397Z,1009.27
2017-04-16T07:32:51.275Z,1009.32
2017-04-16T07:33:32.157Z,1009.29
2017-04-16T07:34:13.032Z,1009.27
2017-04-16T07:34:53.913Z,1009.27
2017-04-16T07:35:34.801Z,1009.25
2017-04-16T07:36:15.668Z,1009.3
2017-04-16T07:36:56.553Z,1009.36
2017-04-16T07:37:37.432Z,1009.39
2017-04-16T07:38:18.301Z,1009.41
2017-04-16T07:38:59.180Z,1009.42
2017-04-16T07:39:40.055Z,1009.4
2017-04-16T07:40:20.934Z,1009.4
2017-04-16T07:41:01.822Z,1009.39
2017-04-16T07:41:42.696Z,1009.4
2017-04-16T07:42:23.575Z,1009.45
2017-04-16T07:43:04.460Z,1009.43
2017-04-16T07:43:45.340Z,1009.36
2017-04-16T07:44:26.227Z,1009.4
2017-04-16T07:45:07.101Z,1009.47
2017-04-16T07:45:47.979Z,1009.49
2017-04-16T07:46:28.854Z,1009.47
2017-04-16T07:47:09.734Z,1009.49
2017-04-16T07:47:50.609Z,1009.49
2017-04-16T07:48:31.494Z,1009.51
2017-04-16T07:49:12.386Z,1009.47
2017-04-16T07:49:53.266Z,1009.49
2017-04-16T07:50:34.144Z,1009.5
2017-04-16T07:51:15.020Z,1009.51
2017-04-16T07:51:55.904Z,1009.47
2017-04-16T07:52:36.778Z,1009.57
2017-04-16T07:53:17.657Z,1009.77
2017-04-16T07:53:58.533Z,1009.84
2017-04-16T07:54:39.416Z,1009.6
2017-04-16T07:55:20.296Z,1010
2017-04-16T07:56:01.172Z,1009.69
2017-04-16T07:56:42.060Z,1009.61
2017-04-16T07:57:22.920Z,1010.78
2017-04-16T07:58:03.798Z,1010.77
2017-04-16T07:58:44.689Z,1010.72
2017-04-16T07:59:25.571Z,1010.67
2017-04-16T08:00:06.450Z,1010.65
2017-04-16T08:00:47.329Z,1010.66
2017-04-16T08:01:28.209Z,1010.66
2017-04-16T08:02:09.095Z,1010.65
2017-04-16T08:02:49.990Z,1010.56
2017-04-16T08:03:30.858Z,1010.55
2017-04-16T08:04:11.743Z,1010.61
2017-04-16T08:04:52.630Z,1010.56
2017-04-16T08:05:33.518Z,1010.59
2017-04-16T08:06:14.390Z,1010.62
2017-04-16T08:06:55.273Z,1010.64
2017-04-16T08:07:36.162Z,1010.57
2017-04-16T08:08:17.050Z,1010.62
2017-04-16T08:08:57.938Z,1010.66
2017-04-16T08:09:38.826Z,1010.67
2017-04-16T08:10:19.707Z,1010.67
2017-04-16T08:11:00.590Z,1010.67
2017-04-16T08:11:41.468Z,1010.57
2017-04-16T08:12:22.347Z,1010.58
2017-04-16T08:13:03.234Z,1010.59
2017-04-16T08:13:44.120Z,1010.67
2017-04-16T08:14:25.009Z,1010.51
2017-04-16T08:15:05.910Z,1010.51
2017-04-16T08:15:46.797Z,1010.36
2017-04-16T08:16:27.680Z,1010.21
2017-04-16T08:17:08.567Z,1010.28
2017-04-16T08:19:18.542Z,1010.67
2017-04-16T08:19:59.434Z,1009.76
2017-04-16T08:20:40.309Z,1009.61
2017-04-16T08:21:21.204Z,1009.63
2017-04-16T08:22:02.096Z,1009.66